createdAt,value
2022-08-04T00:01:09.146Z,67.49
2022-08-04T00:03:48.771Z,68.02
2022-08-04T00:06:53.155Z,67.20
2022-08-04T00:09:41.754Z,67.44
2022-08-04T00:12:11.687Z,68.75
2022-08-04T00:14:47.428Z,69.78
2022-08-04T00:17:15.662Z,69.86
2022-08-04T00:19:47.391Z,70.17
2022-08-04T00:22:15.847Z,70.62
2022-08-04T00:24:42.467Z,71.29
2022-08-04T00:27:09.579Z,71.18
2022-08-04T00:29:38.679Z,71.43
2022-08-04T00:32:07.004Z,71.60
2022-08-04T00:34:34.423Z,71.61
2022-08-04T00:37:00.944Z,72.36
2022-08-04T00:39:27.785Z,72.13
2022-08-04T00:42:13.017Z,72.35
2022-08-04T00:45:01.573Z,72.52
2022-08-04T00:47:36.781Z,72.83
2022-08-04T00:50:24.887Z,74.30
2022-08-04T00:53:05.142Z,75.29
2022-08-04T00:55:58.483Z,75.60
2022-08-04T00:58:47.183Z,75.45
2022-08-04T01:01:49.391Z,74.87
2022-08-04T01:04:19.707Z,75.06
2022-08-04T01:07:15.080Z,75.15
2022-08-04T01:10:07.852Z,75.82
2022-08-04T01:12:46.291Z,75.75
2022-08-04T01:15:59.357Z,75.29
2022-08-04T01:18:35.943Z,75.90
2022-08-04T01:21:11.205Z,75.43
2022-08-04T01:23:57.417Z,74.83
2022-08-04T01:26:42.568Z,74.38
2022-08-04T01:29:23.015Z,74.14
2022-08-04T01:31:56.537Z,75.18
2022-08-04T01:34:25.297Z,76.76
2022-08-04T01:37:07.427Z,77.63
2022-08-04T01:39:49.606Z,77.59
2022-08-04T01:42:31.367Z,78.47
2022-08-04T01:45:02.814Z,78.63
2022-08-04T01:47:31.124Z,78.69
2022-08-04T01:50:07.251Z,79.30
2022-08-04T01:52:36.644Z,78.79
2022-08-04T01:55:06.450Z,79.00
2022-08-04T01:57:38.121Z,78.61
2022-08-04T02:00:06.779Z,78.59
2022-08-04T02:02:34.157Z,78.87
2022-08-04T02:05:00.907Z,78.41
2022-08-04T02:08:00.639Z,78.80
2022-08-04T02:10:30.563Z,78.55
2022-08-04T02:13:15.839Z,78.34
2022-08-04T02:15:52.856Z,78.82
2022-08-04T02:18:25.498Z,79.07
2022-08-04T02:20:58.802Z,78.12
2022-08-04T02:23:38.077Z,78.07
2022-08-04T02:26:06.928Z,79.20
2022-08-04T02:29:06.841Z,80.00
2022-08-04T02:31:39.871Z,79.80
2022-08-04T02:35:08.975Z,79.53
2022-08-04T02:37:35.947Z,80.19
2022-08-04T02:40:05.717Z,81.14
2022-08-04T02:42:34.357Z,81.20
2022-08-04T02:45:01.352Z,81.69
2022-08-04T02:48:28.768Z,81.53
2022-08-04T02:50:28.427Z,80.80
2022-08-04T02:52:58.253Z,80.64
2022-08-04T02:55:27.288Z,81.27
2022-08-04T02:57:55.762Z,82.13
2022-08-04T03:00:22.616Z,82.01
2022-08-04T03:03:25.985Z,81.39
2022-08-04T03:06:13.810Z,82.45
2022-08-04T03:09:01.823Z,82.59
2022-08-04T03:12:13.273Z,82.83
2022-08-04T03:14:54.914Z,83.20
2022-08-04T03:17:59.067Z,82.97
2022-08-04T03:21:03.386Z,83.46
2022-08-04T03:23:48.618Z,82.67
2022-08-04T03:26:55.225Z,82.70
2022-08-04T03:29:46.552Z,83.30
2022-08-04T03:32:31.243Z,83.05
2022-08-04T03:35:09.842Z,83.11
2022-08-04T03:38:12.662Z,83.13
2022-08-04T03:41:02.403Z,83.06
2022-08-04T03:43:57.314Z,82.97
2022-08-04T03:46:35.055Z,84.03
2022-08-04T03:49:29.494Z,84.15
2022-08-04T03:52:14.757Z,83.61
2022-08-04T03:55:06.300Z,83.87
2022-08-04T03:58:03.723Z,84.00
2022-08-04T04:01:04.607Z,83.29
2022-08-04T04:03:37.249Z,82.99
2022-08-04T04:06:33.429Z,82.86
2022-08-04T04:09:57.655Z,83.80
2022-08-04T04:13:09.686Z,83.80
2022-08-04T04:15:54.683Z,83.14
2022-08-04T04:18:51.931Z,83.10
2022-08-04T04:21:39.526Z,83.53
2022-08-04T04:24:11.665Z,83.06
2022-08-04T04:27:08.942Z,83.67
2022-08-04T04:29:53.652Z,83.27
2022-08-04T04:32:56.902Z,83.01
2022-08-04T04:35:49.487Z,83.54
2022-08-04T04:38:41.021Z,82.89
2022-08-04T04:41:26.106Z,82.01
2022-08-04T04:44:01.166Z,81.68
2022-08-04T04:46:54.171Z,80.56
2022-08-04T04:49:54.139Z,79.27
2022-08-04T04:52:20.558Z,78.66
2022-08-04T04:55:02.655Z,74.46
2022-08-04T04:57:54.045Z,69.94
2022-08-04T05:00:22.088Z,65.50
2022-08-04T05:03:10.215Z,62.00
2022-08-04T05:05:47.215Z,58.15
2022-08-04T05:08:45.425Z,54.73
2022-08-04T05:11:34.546Z,53.23
2022-08-04T05:14:37.970Z,53.07
2022-08-04T05:17:46.257Z,51.34
2022-08-04T05:20:27.311Z,51.23
2022-08-04T05:23:03.790Z,50.42
2022-08-04T05:25:41.108Z,50.23
2022-08-04T05:28:20.784Z,50.37
2022-08-04T05:30:51.337Z,49.17
2022-08-04T05:33:33.036Z,47.71
2022-08-04T05:36:18.734Z,45.97
2022-08-04T05:38:51.636Z,43.03
2022-08-04T05:41:19.612Z,41.35
2022-08-04T05:43:48.111Z,40.71
2022-08-04T05:46:17.455Z,40.31
2022-08-04T05:48:45.749Z,39.62
2022-08-04T05:51:13.968Z,38.49
2022-08-04T05:53:44.290Z,37.29
2022-08-04T05:56:13.156Z,37.38
2022-08-04T05:58:40.908Z,38.24
2022-08-04T06:01:10.554Z,38.03
2022-08-04T06:03:38.636Z,37.25
2022-08-04T06:06:06.368Z,36.58
2022-08-04T06:08:33.093Z,36.26
2022-08-04T06:11:05.041Z,36.91
2022-08-04T06:13:49.448Z,37.44
2022-08-04T06:16:29.681Z,35.09
2022-08-04T06:20:00.068Z,34.61
2022-08-04T06:21:50.886Z,36.54
2022-08-04T06:24:25.029Z,36.30
2022-08-04T06:26:52.642Z,35.95
2022-08-04T06:29:26.916Z,33.88
2022-08-04T06:32:28.332Z,34.38
2022-08-04T06:34:45.419Z,34.58
2022-08-04T06:37:12.340Z,34.03
2022-08-04T06:40:01.855Z,34.91
2022-08-04T06:42:29.836Z,34.32
2022-08-04T06:44:59.298Z,33.42
2022-08-04T06:47:26.298Z,33.57
2022-08-04T06:51:29.205Z,33.26
2022-08-04T06:52:44.611Z,35.25
2022-08-04T06:55:11.530Z,34.70
2022-08-04T06:57:40.513Z,35.16
2022-08-04T07:00:11.583Z,34.78
2022-08-04T07:02:45.860Z,34.30
2022-08-04T07:05:12.803Z,34.70
2022-08-04T07:07:58.091Z,35.69
2022-08-04T07:10:28.112Z,34.90
2022-08-04T07:12:57.258Z,34.42
2022-08-04T07:15:25.126Z,35.46
2022-08-04T07:17:52.680Z,34.70
2022-08-04T07:20:34.891Z,34.89
2022-08-04T07:23:03.664Z,32.20
2022-08-04T07:26:00.705Z,32.78
2022-08-04T07:28:17.366Z,33.51
2022-08-04T07:30:44.907Z,34.90
2022-08-04T07:33:11.921Z,33.69
2022-08-04T07:36:05.661Z,32.64
2022-08-04T07:38:27.596Z,33.04
2022-08-04T07:40:55.518Z,33.32
2022-08-04T07:43:23.283Z,33.53
2022-08-04T07:45:50.003Z,34.10
2022-08-04T07:48:18.826Z,33.32
2022-08-04T07:50:46.470Z,33.52
2022-08-04T07:53:55.047Z,34.08
2022-08-04T07:56:01.603Z,34.33
2022-08-04T07:58:30.060Z,34.24
2022-08-04T08:00:57.829Z,33.32
2022-08-04T08:03:25.499Z,33.81
2022-08-04T08:06:16.762Z,34.15
2022-08-04T08:08:40.630Z,33.79
2022-08-04T08:11:09.310Z,33.07
2022-08-04T08:13:37.168Z,33.30
2022-08-04T08:16:04.931Z,33.34
2022-08-04T08:18:32.202Z,34.02
2022-08-04T08:20:59.128Z,32.86
2022-08-04T08:23:26.467Z,34.53
2022-08-04T08:25:53.137Z,34.42
2022-08-04T08:28:19.880Z,32.84
2022-08-04T08:30:46.440Z,33.71
2022-08-04T08:33:21.185Z,32.95
2022-08-04T08:36:01.563Z,34.49
2022-08-04T08:39:07.309Z,33.65
2022-08-04T08:42:04.166Z,34.90
2022-08-04T08:44:39.515Z,33.72
2022-08-04T08:47:21.802Z,34.10
2022-08-04T08:50:17.830Z,32.86
2022-08-04T08:53:09.051Z,32.76
2022-08-04T08:55:59.931Z,34.23
2022-08-04T08:58:44.301Z,33.14
2022-08-04T09:01:38.819Z,34.38
2022-08-04T09:04:37.723Z,33.91
2022-08-04T09:07:27.182Z,34.73
2022-08-04T09:10:02.307Z,34.40
2022-08-04T09:12:51.984Z,33.91
2022-08-04T09:15:34.655Z,33.43
2022-08-04T09:18:01.100Z,34.16
2022-08-04T09:20:27.566Z,34.29
2022-08-04T09:23:09.039Z,35.44
2022-08-04T09:25:47.717Z,35.93
2022-08-04T09:28:50.726Z,35.65
2022-08-04T09:31:15.198Z,35.69
2022-08-04T09:34:02.869Z,35.05
2022-08-04T09:36:37.341Z,34.42
2022-08-04T09:39:11.908Z,34.94
2022-08-04T09:42:25.781Z,33.97
2022-08-04T09:45:42.298Z,33.40
2022-08-04T09:48:15.032Z,34.43
2022-08-04T09:50:50.058Z,34.85
2022-08-04T09:53:57.658Z,34.67
2022-08-04T09:57:17.386Z,36.45
2022-08-04T10:00:07.526Z,34.85
2022-08-04T10:02:39.252Z,34.60
2022-08-04T10:05:13.244Z,35.01
2022-08-04T10:08:16.566Z,34.95
2022-08-04T10:11:12.676Z,34.72
2022-08-04T10:13:56.212Z,34.00
2022-08-04T10:16:28.599Z,35.29
2022-08-04T10:18:58.045Z,34.94
2022-08-04T10:22:30.902Z,35.46
2022-08-04T10:26:03.333Z,35.39
2022-08-04T10:28:15.462Z,36.30
2022-08-04T10:30:49.945Z,36.26
2022-08-04T10:33:39.352Z,36.17
2022-08-04T10:36:10.710Z,37.30
2022-08-04T10:38:45.487Z,37.01
2022-08-04T10:41:30.054Z,37.95
2022-08-04T10:44:42.039Z,35.70
2022-08-04T10:47:16.334Z,36.64
2022-08-04T10:49:48.767Z,35.93
2022-08-04T10:52:22.852Z,35.67
2022-08-04T10:54:53.051Z,36.28
2022-08-04T10:57:39.214Z,34.67
2022-08-04T11:00:09.554Z,36.58
2022-08-04T11:02:45.336Z,36.81
2022-08-04T11:05:22.218Z,35.75
2022-08-04T11:07:53.747Z,36.56
2022-08-04T11:10:23.138Z,36.76
2022-08-04T11:12:58.175Z,35.93
2022-08-04T11:15:38.345Z,35.74
2022-08-04T11:18:20.295Z,34.40
2022-08-04T11:21:20.033Z,36.45
2022-08-04T11:24:11.729Z,36.06
2022-08-04T11:26:59.970Z,35.57
2022-08-04T11:29:51.024Z,36.01
2022-08-04T11:32:21.409Z,36.33
2022-08-04T11:35:00.007Z,36.44
2022-08-04T11:37:34.287Z,33.90
2022-08-04T11:40:15.802Z,35.59
2022-08-04T11:43:02.048Z,34.66
2022-08-04T11:45:37.268Z,34.31
2022-08-04T11:48:11.489Z,34.31
2022-08-04T11:50:51.726Z,35.36
2022-08-04T11:53:26.048Z,35.79
2022-08-04T11:56:07.400Z,34.45
2022-08-04T11:58:36.066Z,34.20
2022-08-04T12:01:27.726Z,34.05
2022-08-04T12:04:28.533Z,34.36
2022-08-04T12:07:33.110Z,34.79
2022-08-04T12:10:41.613Z,34.47
2022-08-04T12:13:33.659Z,33.50
2022-08-04T12:16:07.172Z,34.30
2022-08-04T12:18:40.392Z,34.87
2022-08-04T12:21:18.553Z,34.41
2022-08-04T12:23:57.824Z,34.51
2022-08-04T12:26:36.902Z,34.38
2022-08-04T12:29:10.258Z,32.86
2022-08-04T12:31:55.483Z,32.68
2022-08-04T12:34:43.644Z,33.56
2022-08-04T12:37:29.049Z,34.02
2022-08-04T12:40:30.206Z,33.65
2022-08-04T12:42:59.712Z,31.75
2022-08-04T12:45:27.184Z,32.14
2022-08-04T12:47:58.165Z,31.41
2022-08-04T12:50:24.877Z,32.23
2022-08-04T12:53:03.186Z,33.35
2022-08-04T12:55:33.555Z,31.36
2022-08-04T12:58:02.836Z,29.25
2022-08-04T13:00:40.776Z,30.47
2022-08-04T13:03:18.147Z,32.01
2022-08-04T13:05:45.505Z,30.55
2022-08-04T13:08:13.018Z,31.59
2022-08-04T13:10:47.798Z,31.75
2022-08-04T13:13:19.920Z,31.59
2022-08-04T13:16:05.604Z,32.56
2022-08-04T13:18:42.788Z,30.49
2022-08-04T13:21:21.442Z,30.54
2022-08-04T13:24:09.892Z,30.22
2022-08-04T13:27:18.955Z,28.27
2022-08-04T13:29:57.762Z,29.29
2022-08-04T13:32:28.745Z,29.82
2022-08-04T13:34:57.300Z,30.41
2022-08-04T13:37:33.476Z,30.13
2022-08-04T13:40:02.079Z,28.93
2022-08-04T13:42:29.673Z,30.72
2022-08-04T13:44:59.733Z,30.24
2022-08-04T13:47:34.062Z,29.03
2022-08-04T13:50:11.010Z,29.57
2022-08-04T13:52:37.971Z,29.61
2022-08-04T13:55:05.259Z,28.14
2022-08-04T13:57:35.931Z,28.69
2022-08-04T14:00:08.075Z,28.26
2022-08-04T14:02:48.879Z,28.96
2022-08-04T14:05:29.469Z,28.69
2022-08-04T14:08:19.230Z,28.25
2022-08-04T14:26:00.314Z,27.13
2022-08-04T14:29:09.533Z,27.85
2022-08-04T14:31:26.677Z,26.93
2022-08-04T14:34:02.118Z,25.56
2022-08-04T14:37:00.685Z,26.95
2022-08-04T14:40:07.825Z,26.04
2022-08-04T14:42:54.901Z,23.77
2022-08-04T14:45:31.835Z,24.65
2022-08-04T14:47:59.380Z,24.42
2022-08-04T14:50:41.347Z,24.38
2022-08-04T14:53:19.530Z,24.70
2022-08-04T14:55:48.503Z,23.59
2022-08-04T14:58:34.354Z,23.43
2022-08-04T15:01:10.159Z,24.79
2022-08-04T15:03:52.230Z,23.47
2022-08-04T15:06:28.514Z,25.37
2022-08-04T15:08:57.573Z,24.97
2022-08-04T15:11:24.825Z,24.20
2022-08-04T15:13:56.204Z,25.50
2022-08-04T15:16:24.826Z,23.95
2022-08-04T15:18:54.479Z,25.15
2022-08-04T15:21:22.469Z,25.61
2022-08-04T15:23:50.646Z,24.43
2022-08-04T15:26:41.655Z,24.74
2022-08-04T15:29:59.747Z,24.92
2022-08-04T15:32:22.550Z,24.56
2022-08-04T15:34:51.376Z,24.25
2022-08-04T15:37:27.063Z,24.82
2022-08-04T15:40:00.928Z,25.54
2022-08-04T15:42:43.854Z,26.65
2022-08-04T15:46:02.127Z,26.28
2022-08-04T15:48:10.769Z,25.99
2022-08-04T15:50:59.946Z,26.97
2022-08-04T15:54:01.145Z,26.39
2022-08-04T15:56:26.427Z,26.17
2022-08-04T15:58:55.130Z,27.20
2022-08-04T16:01:23.093Z,26.17
2022-08-04T16:03:53.126Z,26.69
2022-08-04T16:06:29.954Z,27.31
2022-08-04T16:09:05.087Z,26.66
2022-08-04T16:11:37.190Z,26.38
2022-08-04T16:14:07.617Z,28.44
2022-08-04T16:16:36.986Z,29.19
2022-08-04T16:19:23.353Z,32.96
2022-08-04T16:21:52.603Z,34.81
2022-08-04T16:24:28.997Z,34.55
2022-08-04T16:26:56.920Z,35.74
2022-08-04T16:29:23.726Z,36.43
2022-08-04T16:32:05.611Z,35.60
2022-08-04T16:34:48.061Z,35.50
2022-08-04T16:37:18.877Z,36.44
2022-08-04T16:39:50.180Z,36.69
2022-08-04T16:42:32.540Z,37.92
2022-08-04T16:45:07.851Z,37.30
2022-08-04T16:47:49.663Z,37.51
2022-08-04T16:50:21.316Z,38.06
2022-08-04T16:52:54.283Z,37.86
2022-08-04T16:55:23.487Z,38.30
2022-08-04T16:57:51.491Z,38.41
2022-08-04T17:00:27.417Z,37.73
2022-08-04T17:02:54.134Z,37.43
2022-08-04T17:05:38.474Z,37.77
2022-08-04T17:08:29.198Z,38.37
2022-08-04T17:10:54.060Z,39.47
2022-08-04T17:14:02.784Z,39.25
2022-08-04T17:16:18.917Z,40.35
2022-08-04T17:18:49.019Z,39.17
2022-08-04T17:21:25.294Z,40.01
2022-08-04T17:24:15.666Z,40.61
2022-08-04T17:26:52.011Z,41.58
2022-08-04T17:29:42.794Z,42.14
2022-08-04T17:32:21.351Z,41.39
2022-08-04T17:34:50.280Z,41.87
2022-08-04T17:37:39.536Z,42.56
2022-08-04T17:40:14.191Z,43.02
2022-08-04T17:42:41.883Z,42.20
2022-08-04T17:47:58.139Z,43.59
2022-08-04T17:50:30.181Z,43.90
2022-08-04T17:53:11.988Z,44.25
2022-08-04T17:55:47.659Z,44.82
2022-08-04T17:58:22.365Z,45.16
2022-08-04T18:01:22.439Z,45.82
2022-08-04T18:03:53.315Z,45.04
2022-08-04T18:06:21.869Z,45.38
2022-08-04T18:08:55.000Z,46.17
2022-08-04T18:11:25.003Z,46.09
2022-08-04T18:13:57.206Z,47.12
2022-08-04T18:16:24.250Z,47.09
2022-08-04T18:19:15.399Z,47.34
2022-08-04T18:21:46.009Z,47.23
2022-08-04T18:24:34.155Z,47.49
2022-08-04T18:27:14.551Z,48.17
2022-08-04T18:29:41.399Z,48.61
2022-08-04T18:32:33.500Z,48.90
2022-08-04T18:35:03.445Z,49.73
2022-08-04T18:38:05.208Z,49.96
2022-08-04T18:40:29.972Z,50.23
2022-08-04T18:43:01.988Z,50.59
2022-08-04T18:45:34.507Z,50.99
2022-08-04T18:48:04.319Z,50.15
2022-08-04T18:51:10.988Z,51.09
2022-08-04T18:53:34.835Z,52.69
2022-08-04T18:56:02.827Z,52.05
2022-08-04T18:58:29.687Z,51.66
2022-08-04T19:01:00.812Z,52.40
2022-08-04T19:03:32.983Z,52.32
2022-08-04T19:06:01.313Z,52.51
2022-08-04T19:08:34.667Z,52.95
2022-08-04T19:11:37.184Z,52.68
2022-08-04T19:13:58.117Z,52.03
2022-08-04T19:16:29.434Z,51.94
2022-08-04T19:18:57.309Z,52.60
2022-08-04T19:21:59.618Z,53.51
2022-08-04T19:27:54.889Z,53.91
2022-08-04T19:30:21.531Z,54.79
2022-08-04T19:32:51.833Z,55.06
2022-08-04T19:35:18.313Z,54.56
2022-08-04T19:37:58.416Z,54.95
2022-08-04T19:40:32.605Z,56.13
2022-08-04T19:43:10.555Z,56.66
2022-08-04T19:45:42.045Z,56.46
2022-08-04T19:48:21.474Z,56.02
2022-08-04T19:50:48.904Z,57.25
2022-08-04T19:53:19.240Z,56.79
2022-08-04T19:55:49.937Z,56.58
2022-08-04T19:58:17.730Z,56.89
2022-08-04T20:00:50.854Z,57.46
2022-08-04T20:03:20.098Z,57.53
2022-08-04T20:05:54.906Z,58.13
2022-08-04T20:08:24.249Z,58.73
2022-08-04T20:10:51.664Z,58.25
2022-08-04T20:13:19.594Z,58.04
2022-08-04T20:15:57.492Z,59.04
2022-08-04T20:18:35.796Z,59.51
2022-08-04T20:21:18.795Z,60.01
2022-08-04T20:23:48.787Z,60.95
2022-08-04T20:26:16.939Z,61.10
2022-08-04T20:28:45.835Z,60.70
2022-08-04T20:31:18.339Z,61.54
2022-08-04T20:33:53.507Z,61.75
2022-08-04T20:36:21.310Z,62.70
2022-08-04T20:38:52.557Z,63.45
2022-08-04T20:41:22.602Z,63.40
2022-08-04T20:43:49.922Z,64.00
2022-08-04T20:46:28.974Z,64.28
2022-08-04T20:48:57.448Z,64.97
2022-08-04T20:51:32.256Z,66.31
2022-08-04T20:54:04.155Z,66.89
2022-08-04T20:56:50.645Z,67.12
2022-08-04T20:59:18.567Z,67.54
2022-08-04T21:01:45.317Z,68.63
2022-08-04T21:04:34.195Z,67.99
2022-08-04T21:07:08.725Z,68.25
2022-08-04T21:09:42.715Z,68.25
2022-08-04T21:12:27.712Z,68.48
2022-08-04T21:14:57.255Z,70.09
2022-08-04T21:20:12.627Z,70.22
2022-08-04T21:22:40.070Z,70.16
2022-08-04T21:25:07.762Z,70.49
2022-08-04T21:27:42.366Z,71.08
2022-08-04T21:30:24.002Z,70.88
2022-08-04T21:32:50.745Z,70.92
2022-08-04T21:35:18.765Z,70.55
2022-08-04T21:37:57.186Z,71.26
2022-08-04T21:40:36.700Z,70.94
2022-08-04T21:43:05.480Z,71.03
2022-08-04T21:45:36.489Z,71.40
2022-08-04T21:48:04.783Z,71.07
2022-08-04T21:50:31.400Z,70.59
2022-08-04T21:52:58.894Z,70.81
2022-08-04T21:55:25.847Z,71.05
2022-08-04T21:58:13.290Z,71.60
2022-08-04T22:00:40.725Z,71.68
2022-08-04T22:03:28.707Z,71.78
2022-08-04T22:05:55.488Z,72.09
2022-08-04T22:08:23.606Z,72.30
2022-08-04T22:10:55.869Z,72.64
2022-08-04T22:13:24.633Z,73.93
2022-08-04T22:16:11.068Z,74.05
2022-08-04T22:18:37.597Z,74.28
2022-08-04T22:21:11.859Z,74.87
2022-08-04T22:23:45.075Z,74.84
2022-08-04T22:26:14.304Z,76.03
2022-08-04T22:28:47.095Z,75.35
2022-08-04T22:31:24.135Z,75.96
2022-08-04T22:33:53.815Z,75.25
2022-08-04T22:36:22.115Z,75.16
2022-08-04T22:39:01.487Z,75.67
2022-08-04T22:41:34.231Z,76.01
2022-08-04T22:44:16.006Z,75.53
2022-08-04T22:46:42.893Z,76.06
2022-08-04T22:49:09.432Z,76.91
2022-08-04T22:51:36.018Z,77.00
2022-08-04T22:54:02.498Z,77.77
2022-08-04T22:56:38.145Z,77.13
2022-08-04T22:59:06.624Z,76.92
2022-08-04T23:01:57.864Z,77.10
2022-08-04T23:04:23.264Z,76.98
2022-08-04T23:06:49.990Z,77.53
2022-08-04T23:09:17.089Z,77.51
2022-08-04T23:11:43.929Z,77.87
2022-08-04T23:14:10.704Z,77.88
2022-08-04T23:16:40.622Z,78.52
2022-08-04T23:19:12.265Z,78.40
2022-08-04T23:21:47.698Z,78.79
2022-08-04T23:24:29.947Z,79.14
2022-08-04T23:26:57.671Z,78.80
2022-08-04T23:29:24.713Z,78.80
2022-08-04T23:31:59.552Z,79.15
2022-08-04T23:34:26.747Z,79.58
2022-08-04T23:36:55.962Z,80.04
2022-08-04T23:40:03.798Z,79.75
2022-08-04T23:42:20.938Z,80.50
2022-08-04T23:44:48.433Z,80.72
2022-08-04T23:48:15.601Z,80.72
2022-08-04T23:50:01.458Z,81.31
2022-08-04T23:52:30.239Z,80.71
2022-08-04T23:55:00.793Z,80.17
2022-08-04T23:57:31.192Z,80.08
2022-08-04T23:59:58.585Z,80.27
